sensor_id;sensor_type;location;lat;lon;timestamp;P1;durP1;ratioP1;P2;durP2;ratioP2
57297;SDS011;43147;50.972;18.210;2022-11-23T00:00:56;81.90;;;33.70;;
57297;SDS011;43147;50.972;18.210;2022-11-23T00:03:21;76.90;;;35.90;;
57297;SDS011;43147;50.972;18.210;2022-11-23T00:05:46;68.10;;;31.40;;
57297;SDS011;43147;50.972;18.210;2022-11-23T00:08:12;83.60;;;34.80;;
57297;SDS011;43147;50.972;18.210;2022-11-23T00:10:37;94.90;;;37.20;;
57297;SDS011;43147;50.972;18.210;2022-11-23T00:13:03;101.60;;;38.60;;
57297;SDS011;43147;50.972;18.210;2022-11-23T00:15:28;98.90;;;36.90;;
57297;SDS011;43147;50.972;18.210;2022-11-23T00:17:54;97.70;;;35.10;;
57297;SDS011;43147;50.972;18.210;2022-11-23T00:20:19;81.80;;;34.40;;
57297;SDS011;43147;50.972;18.210;2022-11-23T00:22:44;61.80;;;29.70;;
57297;SDS011;43147;50.972;18.210;2022-11-23T00:25:10;74.40;;;32.60;;
57297;SDS011;43147;50.972;18.210;2022-11-23T00:27:35;76.10;;;33.00;;
57297;SDS011;43147;50.972;18.210;2022-11-23T00:30:01;81.60;;;36.10;;
57297;SDS011;43147;50.972;18.210;2022-11-23T00:32:27;90.80;;;37.60;;
57297;SDS011;43147;50.972;18.210;2022-11-23T00:34:53;80.30;;;35.00;;
57297;SDS011;43147;50.972;18.210;2022-11-23T00:37:19;84.40;;;37.80;;
57297;SDS011;43147;50.972;18.210;2022-11-23T00:39:44;93.90;;;37.60;;
57297;SDS011;43147;50.972;18.210;2022-11-23T00:42:10;87.70;;;36.80;;
57297;SDS011;43147;50.972;18.210;2022-11-23T00:44:35;74.50;;;32.50;;
57297;SDS011;43147;50.972;18.210;2022-11-23T00:47:03;78.30;;;33.70;;
57297;SDS011;43147;50.972;18.210;2022-11-23T00:49:30;73.30;;;33.70;;
57297;SDS011;43147;50.972;18.210;2022-11-23T00:51:56;74.20;;;32.00;;
57297;SDS011;43147;50.972;18.210;2022-11-23T00:54:24;78.40;;;32.40;;
57297;SDS011;43147;50.972;18.210;2022-11-23T00:56:49;64.00;;;28.40;;
57297;SDS011;43147;50.972;18.210;2022-11-23T00:59:15;64.90;;;30.60;;
57297;SDS011;43147;50.972;18.210;2022-11-23T01:01:40;72.60;;;29.20;;
57297;SDS011;43147;50.972;18.210;2022-11-23T01:04:07;77.60;;;33.30;;
57297;SDS011;43147;50.972;18.210;2022-11-23T01:06:34;78.60;;;34.50;;
57297;SDS011;43147;50.972;18.210;2022-11-23T01:09:05;100.50;;;37.10;;
57297;SDS011;43147;50.972;18.210;2022-11-23T01:11:49;91.90;;;34.90;;
57297;SDS011;43147;50.972;18.210;2022-11-23T01:14:14;85.60;;;34.30;;
57297;SDS011;43147;50.972;18.210;2022-11-23T01:16:41;103.20;;;40.00;;
57297;SDS011;43147;50.972;18.210;2022-11-23T01:19:10;73.60;;;31.80;;
57297;SDS011;43147;50.972;18.210;2022-11-23T01:21:36;69.70;;;27.30;;
57297;SDS011;43147;50.972;18.210;2022-11-23T01:24:10;77.20;;;32.10;;
57297;SDS011;43147;50.972;18.210;2022-11-23T01:26:37;81.10;;;32.50;;
57297;SDS011;43147;50.972;18.210;2022-11-23T01:29:03;81.10;;;32.60;;
57297;SDS011;43147;50.972;18.210;2022-11-23T01:31:29;83.30;;;34.20;;
57297;SDS011;43147;50.972;18.210;2022-11-23T01:33:55;104.60;;;35.30;;
57297;SDS011;43147;50.972;18.210;2022-11-23T01:36:25;76.20;;;30.00;;
57297;SDS011;43147;50.972;18.210;2022-11-23T01:38:56;68.30;;;29.00;;
57297;SDS011;43147;50.972;18.210;2022-11-23T01:41:24;66.60;;;28.60;;
57297;SDS011;43147;50.972;18.210;2022-11-23T01:43:51;71.00;;;30.10;;
57297;SDS011;43147;50.972;18.210;2022-11-23T01:46:16;75.30;;;31.60;;
57297;SDS011;43147;50.972;18.210;2022-11-23T01:51:13;86.40;;;33.80;;
57297;SDS011;43147;50.972;18.210;2022-11-23T01:53:40;96.80;;;39.50;;
57297;SDS011;43147;50.972;18.210;2022-11-23T01:56:07;100.60;;;40.70;;
57297;SDS011;43147;50.972;18.210;2022-11-23T01:58:36;90.40;;;32.90;;
57297;SDS011;43147;50.972;18.210;2022-11-23T02:01:04;76.20;;;34.80;;
57297;SDS011;43147;50.972;18.210;2022-11-23T02:03:30;128.70;;;47.20;;
57297;SDS011;43147;50.972;18.210;2022-11-23T02:05:58;139.20;;;46.80;;
57297;SDS011;43147;50.972;18.210;2022-11-23T02:08:25;99.10;;;39.70;;
57297;SDS011;43147;50.972;18.210;2022-11-23T02:10:52;83.70;;;34.60;;
57297;SDS011;43147;50.972;18.210;2022-11-23T02:13:20;98.00;;;40.00;;
57297;SDS011;43147;50.972;18.210;2022-11-23T02:15:46;88.50;;;37.70;;
57297;SDS011;43147;50.972;18.210;2022-11-23T02:18:15;80.30;;;31.90;;
57297;SDS011;43147;50.972;18.210;2022-11-23T02:20:44;86.90;;;35.90;;
57297;SDS011;43147;50.972;18.210;2022-11-23T02:26:08;72.90;;;31.20;;
57297;SDS011;43147;50.972;18.210;2022-11-23T02:28:39;100.00;;;35.40;;
57297;SDS011;43147;50.972;18.210;2022-11-23T02:31:07;92.80;;;35.60;;
57297;SDS011;43147;50.972;18.210;2022-11-23T02:33:36;77.70;;;34.20;;
57297;SDS011;43147;50.972;18.210;2022-11-23T02:36:20;88.50;;;33.90;;
57297;SDS011;43147;50.972;18.210;2022-11-23T02:39:07;79.60;;;30.20;;
57297;SDS011;43147;50.972;18.210;2022-11-23T02:41:38;80.80;;;32.50;;
57297;SDS011;43147;50.972;18.210;2022-11-23T02:44:09;75.70;;;31.20;;
57297;SDS011;43147;50.972;18.210;2022-11-23T02:46:39;86.20;;;31.90;;
57297;SDS011;43147;50.972;18.210;2022-11-23T02:49:05;84.00;;;34.10;;
57297;SDS011;43147;50.972;18.210;2022-11-23T02:51:30;77.90;;;31.80;;
57297;SDS011;43147;50.972;18.210;2022-11-23T02:53:55;79.80;;;32.40;;
57297;SDS011;43147;50.972;18.210;2022-11-23T02:56:21;78.00;;;32.00;;
57297;SDS011;43147;50.972;18.210;2022-11-23T02:58:47;93.70;;;33.40;;
57297;SDS011;43147;50.972;18.210;2022-11-23T03:01:13;80.10;;;30.80;;
57297;SDS011;43147;50.972;18.210;2022-11-23T03:03:39;93.80;;;32.20;;
57297;SDS011;43147;50.972;18.210;2022-11-23T03:06:04;89.80;;;32.60;;
57297;SDS011;43147;50.972;18.210;2022-11-23T03:08:30;76.50;;;31.20;;
57297;SDS011;43147;50.972;18.210;2022-11-23T03:10:55;87.80;;;32.00;;
57297;SDS011;43147;50.972;18.210;2022-11-23T03:13:21;77.20;;;30.80;;
57297;SDS011;43147;50.972;18.210;2022-11-23T03:15:46;81.60;;;29.90;;
57297;SDS011;43147;50.972;18.210;2022-11-23T03:18:12;96.40;;;32.60;;
57297;SDS011;43147;50.972;18.210;2022-11-23T03:20:39;76.80;;;30.90;;
57297;SDS011;43147;50.972;18.210;2022-11-23T03:23:05;75.20;;;32.40;;
57297;SDS011;43147;50.972;18.210;2022-11-23T03:25:30;92.90;;;31.30;;
57297;SDS011;43147;50.972;18.210;2022-11-23T03:27:56;84.00;;;29.90;;
57297;SDS011;43147;50.972;18.210;2022-11-23T03:30:21;88.50;;;32.00;;
57297;SDS011;43147;50.972;18.210;2022-11-23T03:32:47;88.50;;;31.50;;
57297;SDS011;43147;50.972;18.210;2022-11-23T03:35:12;93.40;;;31.40;;
57297;SDS011;43147;50.972;18.210;2022-11-23T03:37:38;90.70;;;32.90;;
57297;SDS011;43147;50.972;18.210;2022-11-23T03:40:03;96.80;;;33.30;;
57297;SDS011;43147;50.972;18.210;2022-11-23T03:42:29;77.20;;;30.40;;
57297;SDS011;43147;50.972;18.210;2022-11-23T03:44:55;80.20;;;28.90;;
57297;SDS011;43147;50.972;18.210;2022-11-23T03:47:20;87.40;;;30.30;;
57297;SDS011;43147;50.972;18.210;2022-11-23T03:49:47;95.50;;;32.30;;
57297;SDS011;43147;50.972;18.210;2022-11-23T03:52:15;92.40;;;32.10;;
57297;SDS011;43147;50.972;18.210;2022-11-23T03:54:40;104.00;;;34.20;;
57297;SDS011;43147;50.972;18.210;2022-11-23T03:57:06;83.00;;;31.80;;
57297;SDS011;43147;50.972;18.210;2022-11-23T03:59:31;95.50;;;34.30;;
57297;SDS011;43147;50.972;18.210;2022-11-23T04:01:57;87.40;;;31.10;;
57297;SDS011;43147;50.972;18.210;2022-11-23T04:04:22;85.30;;;30.00;;
57297;SDS011;43147;50.972;18.210;2022-11-23T04:06:48;84.50;;;28.20;;
57297;SDS011;43147;50.972;18.210;2022-11-23T04:09:13;89.40;;;31.80;;
57297;SDS011;43147;50.972;18.210;2022-11-23T04:11:41;90.40;;;32.20;;
57297;SDS011;43147;50.972;18.210;2022-11-23T04:14:06;93.40;;;34.70;;
57297;SDS011;43147;50.972;18.210;2022-11-23T04:16:32;92.90;;;32.20;;
57297;SDS011;43147;50.972;18.210;2022-11-23T04:18:57;80.60;;;30.80;;
57297;SDS011;43147;50.972;18.210;2022-11-23T04:21:22;97.20;;;31.10;;
57297;SDS011;43147;50.972;18.210;2022-11-23T04:23:48;101.40;;;35.30;;
57297;SDS011;43147;50.972;18.210;2022-11-23T04:26:14;89.00;;;31.50;;
57297;SDS011;43147;50.972;18.210;2022-11-23T04:28:39;104.50;;;34.30;;
57297;SDS011;43147;50.972;18.210;2022-11-23T04:31:05;99.80;;;33.40;;
57297;SDS011;43147;50.972;18.210;2022-11-23T04:33:30;99.30;;;34.40;;
57297;SDS011;43147;50.972;18.210;2022-11-23T04:35:56;122.10;;;39.70;;
57297;SDS011;43147;50.972;18.210;2022-11-23T04:38:21;96.10;;;35.40;;
57297;SDS011;43147;50.972;18.210;2022-11-23T04:40:47;110.10;;;37.50;;
57297;SDS011;43147;50.972;18.210;2022-11-23T04:43:13;85.90;;;32.10;;
57297;SDS011;43147;50.972;18.210;2022-11-23T04:45:39;102.20;;;34.20;;
57297;SDS011;43147;50.972;18.210;2022-11-23T04:48:05;102.40;;;38.90;;
57297;SDS011;43147;50.972;18.210;2022-11-23T04:50:31;125.30;;;39.80;;
57297;SDS011;43147;50.972;18.210;2022-11-23T04:52:58;125.50;;;38.10;;
57297;SDS011;43147;50.972;18.210;2022-11-23T04:55:24;112.20;;;36.50;;
57297;SDS011;43147;50.972;18.210;2022-11-23T04:57:49;99.80;;;33.70;;
57297;SDS011;43147;50.972;18.210;2022-11-23T05:00:15;105.30;;;35.40;;
57297;SDS011;43147;50.972;18.210;2022-11-23T05:02:41;90.30;;;33.70;;
57297;SDS011;43147;50.972;18.210;2022-11-23T05:05:07;103.90;;;36.90;;
57297;SDS011;43147;50.972;18.210;2022-11-23T05:07:33;121.00;;;40.80;;
57297;SDS011;43147;50.972;18.210;2022-11-23T05:09:58;85.80;;;32.10;;
57297;SDS011;43147;50.972;18.210;2022-11-23T05:12:24;107.30;;;34.50;;
57297;SDS011;43147;50.972;18.210;2022-11-23T05:14:49;90.50;;;33.00;;
57297;SDS011;43147;50.972;18.210;2022-11-23T05:17:15;95.30;;;33.90;;
57297;SDS011;43147;50.972;18.210;2022-11-23T05:19:40;104.80;;;36.30;;
57297;SDS011;43147;50.972;18.210;2022-11-23T05:22:06;89.80;;;33.40;;
57297;SDS011;43147;50.972;18.210;2022-11-23T05:24:33;89.20;;;32.40;;
57297;SDS011;43147;50.972;18.210;2022-11-23T05:26:58;100.70;;;33.50;;
57297;SDS011;43147;50.972;18.210;2022-11-23T05:29:23;86.70;;;34.20;;
57297;SDS011;43147;50.972;18.210;2022-11-23T05:31:49;108.90;;;35.50;;
57297;SDS011;43147;50.972;18.210;2022-11-23T05:34:14;94.10;;;33.60;;
57297;SDS011;43147;50.972;18.210;2022-11-23T05:36:40;90.50;;;33.20;;
57297;SDS011;43147;50.972;18.210;2022-11-23T05:39:06;98.30;;;33.00;;
57297;SDS011;43147;50.972;18.210;2022-11-23T05:41:31;94.90;;;34.70;;
57297;SDS011;43147;50.972;18.210;2022-11-23T05:43:57;101.30;;;35.40;;
57297;SDS011;43147;50.972;18.210;2022-11-23T05:46:22;86.70;;;34.30;;
57297;SDS011;43147;50.972;18.210;2022-11-23T05:48:48;90.40;;;33.20;;
57297;SDS011;43147;50.972;18.210;2022-11-23T05:51:13;86.60;;;33.00;;
57297;SDS011;43147;50.972;18.210;2022-11-23T05:53:39;85.10;;;31.50;;
57297;SDS011;43147;50.972;18.210;2022-11-23T05:56:04;81.40;;;32.20;;
57297;SDS011;43147;50.972;18.210;2022-11-23T05:58:30;84.30;;;33.00;;
57297;SDS011;43147;50.972;18.210;2022-11-23T06:00:56;83.30;;;32.40;;
57297;SDS011;43147;50.972;18.210;2022-11-23T06:03:23;85.10;;;31.70;;
57297;SDS011;43147;50.972;18.210;2022-11-23T06:05:48;95.80;;;32.20;;
57297;SDS011;43147;50.972;18.210;2022-11-23T06:08:13;84.10;;;33.10;;
57297;SDS011;43147;50.972;18.210;2022-11-23T06:10:39;100.10;;;32.00;;
57297;SDS011;43147;50.972;18.210;2022-11-23T06:13:05;92.30;;;32.80;;
57297;SDS011;43147;50.972;18.210;2022-11-23T06:15:30;96.90;;;35.80;;
57297;SDS011;43147;50.972;18.210;2022-11-23T06:18:02;103.80;;;32.70;;
57297;SDS011;43147;50.972;18.210;2022-11-23T06:20:28;116.50;;;36.10;;
57297;SDS011;43147;50.972;18.210;2022-11-23T06:22:53;121.00;;;37.20;;
57297;SDS011;43147;50.972;18.210;2022-11-23T06:25:21;108.10;;;32.40;;
57297;SDS011;43147;50.972;18.210;2022-11-23T06:27:53;108.80;;;35.60;;
57297;SDS011;43147;50.972;18.210;2022-11-23T06:30:24;103.00;;;34.30;;
57297;SDS011;43147;50.972;18.210;2022-11-23T06:32:50;93.50;;;35.30;;
57297;SDS011;43147;50.972;18.210;2022-11-23T06:35:16;87.70;;;33.30;;
57297;SDS011;43147;50.972;18.210;2022-11-23T06:37:41;97.10;;;33.10;;
57297;SDS011;43147;50.972;18.210;2022-11-23T06:40:08;97.10;;;32.80;;
57297;SDS011;43147;50.972;18.210;2022-11-23T06:42:34;94.10;;;29.40;;
57297;SDS011;43147;50.972;18.210;2022-11-23T06:45:00;95.20;;;31.30;;
57297;SDS011;43147;50.972;18.210;2022-11-23T06:47:26;101.20;;;31.90;;
57297;SDS011;43147;50.972;18.210;2022-11-23T06:49:52;87.00;;;30.60;;
57297;SDS011;43147;50.972;18.210;2022-11-23T06:52:18;101.60;;;35.80;;
57297;SDS011;43147;50.972;18.210;2022-11-23T06:54:43;92.00;;;32.80;;
57297;SDS011;43147;50.972;18.210;2022-11-23T06:57:09;110.80;;;36.20;;
57297;SDS011;43147;50.972;18.210;2022-11-23T06:59:35;99.90;;;33.50;;
57297;SDS011;43147;50.972;18.210;2022-11-23T07:02:00;108.90;;;38.20;;
57297;SDS011;43147;50.972;18.210;2022-11-23T07:04:28;109.00;;;40.30;;
57297;SDS011;43147;50.972;18.210;2022-11-23T07:06:53;118.70;;;45.10;;
57297;SDS011;43147;50.972;18.210;2022-11-23T07:09:18;92.00;;;35.60;;
57297;SDS011;43147;50.972;18.210;2022-11-23T07:11:44;98.40;;;37.00;;
57297;SDS011;43147;50.972;18.210;2022-11-23T07:14:10;105.40;;;38.50;;
57297;SDS011;43147;50.972;18.210;2022-11-23T07:16:36;111.80;;;46.60;;
57297;SDS011;43147;50.972;18.210;2022-11-23T07:19:01;100.00;;;38.60;;
57297;SDS011;43147;50.972;18.210;2022-11-23T07:21:27;85.60;;;34.80;;
57297;SDS011;43147;50.972;18.210;2022-11-23T07:23:52;85.20;;;35.70;;
57297;SDS011;43147;50.972;18.210;2022-11-23T07:26:18;80.40;;;31.00;;
57297;SDS011;43147;50.972;18.210;2022-11-23T07:28:43;83.10;;;34.10;;
57297;SDS011;43147;50.972;18.210;2022-11-23T07:31:09;85.20;;;34.30;;
57297;SDS011;43147;50.972;18.210;2022-11-23T07:33:34;84.00;;;34.80;;
57297;SDS011;43147;50.972;18.210;2022-11-23T07:36:00;83.30;;;34.40;;
57297;SDS011;43147;50.972;18.210;2022-11-23T07:38:27;76.50;;;29.80;;
57297;SDS011;43147;50.972;18.210;2022-11-23T07:40:53;81.40;;;31.70;;
57297;SDS011;43147;50.972;18.210;2022-11-23T07:43:19;65.00;;;28.10;;
57297;SDS011;43147;50.972;18.210;2022-11-23T07:45:44;75.20;;;31.50;;
57297;SDS011;43147;50.972;18.210;2022-11-23T07:48:10;86.30;;;34.30;;
57297;SDS011;43147;50.972;18.210;2022-11-23T07:50:37;170.40;;;50.60;;
57297;SDS011;43147;50.972;18.210;2022-11-23T07:53:04;89.60;;;33.80;;
57297;SDS011;43147;50.972;18.210;2022-11-23T07:55:30;119.70;;;44.70;;
57297;SDS011;43147;50.972;18.210;2022-11-23T07:57:56;102.90;;;39.50;;
57297;SDS011;43147;50.972;18.210;2022-11-23T08:00:22;145.90;;;52.00;;
57297;SDS011;43147;50.972;18.210;2022-11-23T08:02:49;94.60;;;33.00;;
57297;SDS011;43147;50.972;18.210;2022-11-23T08:05:14;78.90;;;30.30;;
57297;SDS011;43147;50.972;18.210;2022-11-23T08:07:40;75.30;;;33.40;;
57297;SDS011;43147;50.972;18.210;2022-11-23T08:10:06;92.70;;;36.40;;
57297;SDS011;43147;50.972;18.210;2022-11-23T08:12:32;91.70;;;37.50;;
57297;SDS011;43147;50.972;18.210;2022-11-23T08:14:58;91.60;;;40.40;;
57297;SDS011;43147;50.972;18.210;2022-11-23T08:17:23;98.00;;;40.60;;
57297;SDS011;43147;50.972;18.210;2022-11-23T08:19:49;116.90;;;48.90;;
57297;SDS011;43147;50.972;18.210;2022-11-23T08:22:14;109.90;;;50.80;;
57297;SDS011;43147;50.972;18.210;2022-11-23T08:24:41;97.10;;;43.60;;
57297;SDS011;43147;50.972;18.210;2022-11-23T08:27:06;137.10;;;49.60;;
57297;SDS011;43147;50.972;18.210;2022-11-23T08:29:32;96.70;;;40.80;;
57297;SDS011;43147;50.972;18.210;2022-11-23T08:31:57;95.10;;;41.80;;
57297;SDS011;43147;50.972;18.210;2022-11-23T08:34:23;90.60;;;39.10;;
57297;SDS011;43147;50.972;18.210;2022-11-23T08:36:49;137.10;;;53.50;;
57297;SDS011;43147;50.972;18.210;2022-11-23T08:39:15;102.60;;;42.00;;
57297;SDS011;43147;50.972;18.210;2022-11-23T08:41:42;91.40;;;39.20;;
57297;SDS011;43147;50.972;18.210;2022-11-23T08:44:07;112.40;;;46.90;;
57297;SDS011;43147;50.972;18.210;2022-11-23T08:46:35;141.70;;;55.30;;
57297;SDS011;43147;50.972;18.210;2022-11-23T08:49:01;129.50;;;51.60;;
57297;SDS011;43147;50.972;18.210;2022-11-23T08:51:27;99.10;;;42.50;;
57297;SDS011;43147;50.972;18.210;2022-11-23T08:53:52;100.40;;;42.80;;
57297;SDS011;43147;50.972;18.210;2022-11-23T08:56:18;91.50;;;40.50;;
57297;SDS011;43147;50.972;18.210;2022-11-23T08:58:43;105.60;;;44.70;;
57297;SDS011;43147;50.972;18.210;2022-11-23T09:01:13;85.20;;;40.80;;
57297;SDS011;43147;50.972;18.210;2022-11-23T09:03:40;84.00;;;39.30;;
57297;SDS011;43147;50.972;18.210;2022-11-23T09:06:06;74.20;;;37.20;;
57297;SDS011;43147;50.972;18.210;2022-11-23T09:08:32;78.20;;;47.50;;
57297;SDS011;43147;50.972;18.210;2022-11-23T09:11:02;77.60;;;46.50;;
57297;SDS011;43147;50.972;18.210;2022-11-23T09:13:29;78.60;;;48.40;;
57297;SDS011;43147;50.972;18.210;2022-11-23T09:15:58;71.20;;;44.20;;
57297;SDS011;43147;50.972;18.210;2022-11-23T09:18:25;71.90;;;45.10;;
57297;SDS011;43147;50.972;18.210;2022-11-23T09:20:51;68.30;;;46.10;;
57297;SDS011;43147;50.972;18.210;2022-11-23T09:23:17;63.30;;;42.00;;
57297;SDS011;43147;50.972;18.210;2022-11-23T09:25:42;56.50;;;37.90;;
57297;SDS011;43147;50.972;18.210;2022-11-23T09:28:12;55.50;;;37.70;;
57297;SDS011;43147;50.972;18.210;2022-11-23T09:30:39;62.30;;;40.20;;
57297;SDS011;43147;50.972;18.210;2022-11-23T09:33:05;55.20;;;35.60;;
57297;SDS011;43147;50.972;18.210;2022-11-23T09:35:32;50.50;;;35.90;;
57297;SDS011;43147;50.972;18.210;2022-11-23T09:37:58;50.90;;;34.90;;
57297;SDS011;43147;50.972;18.210;2022-11-23T09:40:30;57.90;;;36.00;;
57297;SDS011;43147;50.972;18.210;2022-11-23T09:43:14;59.90;;;41.00;;
57297;SDS011;43147;50.972;18.210;2022-11-23T09:45:50;58.10;;;37.10;;
57297;SDS011;43147;50.972;18.210;2022-11-23T09:56:17;77.00;;;46.80;;
57297;SDS011;43147;50.972;18.210;2022-11-23T09:58:45;87.40;;;52.40;;
57297;SDS011;43147;50.972;18.210;2022-11-23T10:01:11;86.80;;;50.30;;
57297;SDS011;43147;50.972;18.210;2022-11-23T10:03:39;63.80;;;41.10;;
57297;SDS011;43147;50.972;18.210;2022-11-23T10:06:13;70.70;;;43.70;;
57297;SDS011;43147;50.972;18.210;2022-11-23T10:17:21;58.70;;;39.30;;
57297;SDS011;43147;50.972;18.210;2022-11-23T10:22:59;56.50;;;38.00;;
57297;SDS011;43147;50.972;18.210;2022-11-23T10:25:31;62.40;;;39.00;;
57297;SDS011;43147;50.972;18.210;2022-11-23T10:28:05;65.10;;;41.70;;
57297;SDS011;43147;50.972;18.210;2022-11-23T10:30:37;53.70;;;35.10;;
57297;SDS011;43147;50.972;18.210;2022-11-23T10:33:04;49.50;;;34.60;;
57297;SDS011;43147;50.972;18.210;2022-11-23T10:35:42;56.30;;;38.30;;
57297;SDS011;43147;50.972;18.210;2022-11-23T10:38:14;52.00;;;35.30;;
57297;SDS011;43147;50.972;18.210;2022-11-23T10:48:49;50.00;;;35.70;;
57297;SDS011;43147;50.972;18.210;2022-11-23T10:51:23;48.10;;;34.80;;
57297;SDS011;43147;50.972;18.210;2022-11-23T10:53:53;45.30;;;30.00;;
57297;SDS011;43147;50.972;18.210;2022-11-23T10:56:21;49.00;;;32.20;;
57297;SDS011;43147;50.972;18.210;2022-11-23T10:58:47;51.60;;;35.10;;
57297;SDS011;43147;50.972;18.210;2022-11-23T11:03:39;66.60;;;46.90;;
57297;SDS011;43147;50.972;18.210;2022-11-23T11:06:05;55.40;;;37.60;;
57297;SDS011;43147;50.972;18.210;2022-11-23T11:08:33;50.60;;;34.60;;
57297;SDS011;43147;50.972;18.210;2022-11-23T11:11:18;47.40;;;32.80;;
57297;SDS011;43147;50.972;18.210;2022-11-23T11:13:47;47.50;;;32.50;;
57297;SDS011;43147;50.972;18.210;2022-11-23T11:18:55;53.10;;;34.80;;
57297;SDS011;43147;50.972;18.210;2022-11-23T11:21:33;57.30;;;37.80;;
57297;SDS011;43147;50.972;18.210;2022-11-23T11:24:01;44.70;;;31.60;;
57297;SDS011;43147;50.972;18.210;2022-11-23T11:26:29;44.10;;;31.10;;
57297;SDS011;43147;50.972;18.210;2022-11-23T11:28:56;46.60;;;32.30;;
57297;SDS011;43147;50.972;18.210;2022-11-23T11:31:37;41.30;;;30.10;;
57297;SDS011;43147;50.972;18.210;2022-11-23T11:34:12;48.40;;;33.00;;
57297;SDS011;43147;50.972;18.210;2022-11-23T11:36:52;46.70;;;29.70;;
57297;SDS011;43147;50.972;18.210;2022-11-23T11:39:36;39.80;;;29.00;;
57297;SDS011;43147;50.972;18.210;2022-11-23T11:42:05;39.80;;;29.70;;
57297;SDS011;43147;50.972;18.210;2022-11-23T11:44:32;39.90;;;28.30;;
57297;SDS011;43147;50.972;18.210;2022-11-23T11:49:58;41.40;;;30.10;;
57297;SDS011;43147;50.972;18.210;2022-11-23T11:52:31;45.20;;;29.70;;
57297;SDS011;43147;50.972;18.210;2022-11-23T11:55:11;43.60;;;30.50;;
57297;SDS011;43147;50.972;18.210;2022-11-23T11:57:42;40.70;;;29.20;;
57297;SDS011;43147;50.972;18.210;2022-11-23T12:00:12;42.60;;;29.30;;
57297;SDS011;43147;50.972;18.210;2022-11-23T12:08:00;43.60;;;31.20;;
57297;SDS011;43147;50.972;18.210;2022-11-23T12:10:37;50.40;;;34.50;;
57297;SDS011;43147;50.972;18.210;2022-11-23T12:18:37;83.70;;;35.90;;
57297;SDS011;43147;50.972;18.210;2022-11-23T12:21:16;112.40;;;41.90;;
57297;SDS011;43147;50.972;18.210;2022-11-23T12:43:50;77.60;;;34.60;;
57297;SDS011;43147;50.972;18.210;2022-11-23T12:46:20;95.10;;;42.10;;
57297;SDS011;43147;50.972;18.210;2022-11-23T12:57:17;59.60;;;30.10;;
57297;SDS011;43147;50.972;18.210;2022-11-23T12:59:47;83.80;;;40.20;;
57297;SDS011;43147;50.972;18.210;2022-11-23T13:02:53;57.40;;;34.40;;
57297;SDS011;43147;50.972;18.210;2022-11-23T13:08:14;143.10;;;64.20;;
57297;SDS011;43147;50.972;18.210;2022-11-23T13:16:16;147.70;;;59.90;;
57297;SDS011;43147;50.972;18.210;2022-11-23T13:21:38;125.80;;;61.20;;
57297;SDS011;43147;50.972;18.210;2022-11-23T13:40:27;61.00;;;32.50;;
57297;SDS011;43147;50.972;18.210;2022-11-23T13:43:01;59.60;;;31.80;;
57297;SDS011;43147;50.972;18.210;2022-11-23T13:45:32;59.70;;;28.90;;
57297;SDS011;43147;50.972;18.210;2022-11-23T13:50:54;56.30;;;29.70;;
57297;SDS011;43147;50.972;18.210;2022-11-23T13:55:56;47.50;;;24.10;;
57297;SDS011;43147;50.972;18.210;2022-11-23T14:00:52;48.20;;;27.20;;
57297;SDS011;43147;50.972;18.210;2022-11-23T14:06:13;56.80;;;31.00;;
57297;SDS011;43147;50.972;18.210;2022-11-23T14:08:45;60.00;;;27.50;;
57297;SDS011;43147;50.972;18.210;2022-11-23T14:11:13;60.80;;;32.70;;
57297;SDS011;43147;50.972;18.210;2022-11-23T14:13:46;63.10;;;32.40;;
57297;SDS011;43147;50.972;18.210;2022-11-23T14:16:17;53.30;;;25.20;;
57297;SDS011;43147;50.972;18.210;2022-11-23T14:19:25;63.70;;;31.60;;
57297;SDS011;43147;50.972;18.210;2022-11-23T14:22:02;58.60;;;28.10;;
57297;SDS011;43147;50.972;18.210;2022-11-23T14:24:51;155.50;;;79.80;;
57297;SDS011;43147;50.972;18.210;2022-11-23T14:30:39;66.70;;;32.80;;
57297;SDS011;43147;50.972;18.210;2022-11-23T14:33:38;82.70;;;35.80;;
57297;SDS011;43147;50.972;18.210;2022-11-23T14:36:14;94.40;;;40.50;;
57297;SDS011;43147;50.972;18.210;2022-11-23T14:41:34;132.40;;;53.80;;
57297;SDS011;43147;50.972;18.210;2022-11-23T14:44:01;98.00;;;42.40;;
57297;SDS011;43147;50.972;18.210;2022-11-23T14:46:28;272.60;;;101.80;;
57297;SDS011;43147;50.972;18.210;2022-11-23T14:49:11;105.20;;;40.00;;
57297;SDS011;43147;50.972;18.210;2022-11-23T14:51:40;121.00;;;50.90;;
57297;SDS011;43147;50.972;18.210;2022-11-23T14:54:08;109.70;;;44.20;;
57297;SDS011;43147;50.972;18.210;2022-11-23T15:04:49;169.80;;;62.80;;
57297;SDS011;43147;50.972;18.210;2022-11-23T15:07:22;123.10;;;47.20;;
57297;SDS011;43147;50.972;18.210;2022-11-23T15:12:46;82.60;;;36.90;;
57297;SDS011;43147;50.972;18.210;2022-11-23T15:15:16;101.00;;;39.20;;
57297;SDS011;43147;50.972;18.210;2022-11-23T15:17:50;86.50;;;37.70;;
57297;SDS011;43147;50.972;18.210;2022-11-23T15:20:16;173.40;;;63.40;;
57297;SDS011;43147;50.972;18.210;2022-11-23T15:22:42;249.20;;;75.00;;
57297;SDS011;43147;50.972;18.210;2022-11-23T15:25:10;198.90;;;68.70;;
57297;SDS011;43147;50.972;18.210;2022-11-23T15:27:39;151.40;;;50.20;;
57297;SDS011;43147;50.972;18.210;2022-11-23T15:30:14;106.30;;;40.30;;
57297;SDS011;43147;50.972;18.210;2022-11-23T15:32:40;111.80;;;43.40;;
57297;SDS011;43147;50.972;18.210;2022-11-23T15:35:06;130.60;;;51.50;;
57297;SDS011;43147;50.972;18.210;2022-11-23T15:37:39;159.10;;;70.10;;
57297;SDS011;43147;50.972;18.210;2022-11-23T15:40:12;120.70;;;53.80;;
57297;SDS011;43147;50.972;18.210;2022-11-23T15:42:38;112.50;;;47.70;;
57297;SDS011;43147;50.972;18.210;2022-11-23T15:45:04;135.20;;;54.10;;
57297;SDS011;43147;50.972;18.210;2022-11-23T15:47:30;142.50;;;54.60;;
57297;SDS011;43147;50.972;18.210;2022-11-23T15:50:07;149.90;;;56.50;;
57297;SDS011;43147;50.972;18.210;2022-11-23T15:52:34;156.60;;;56.90;;
57297;SDS011;43147;50.972;18.210;2022-11-23T15:55:04;150.20;;;54.10;;
57297;SDS011;43147;50.972;18.210;2022-11-23T15:57:31;211.90;;;72.00;;
57297;SDS011;43147;50.972;18.210;2022-11-23T15:59:58;199.80;;;74.20;;
57297;SDS011;43147;50.972;18.210;2022-11-23T16:02:26;265.10;;;91.00;;
57297;SDS011;43147;50.972;18.210;2022-11-23T16:07:56;163.40;;;66.30;;
57297;SDS011;43147;50.972;18.210;2022-11-23T16:10:25;215.90;;;88.80;;
57297;SDS011;43147;50.972;18.210;2022-11-23T16:12:55;214.40;;;87.80;;
57297;SDS011;43147;50.972;18.210;2022-11-23T16:18:03;182.50;;;75.70;;
57297;SDS011;43147;50.972;18.210;2022-11-23T16:20:30;163.60;;;67.90;;
57297;SDS011;43147;50.972;18.210;2022-11-23T16:22:56;189.20;;;79.20;;
57297;SDS011;43147;50.972;18.210;2022-11-23T16:25:33;222.90;;;93.70;;
57297;SDS011;43147;50.972;18.210;2022-11-23T16:28:02;277.40;;;120.00;;
57297;SDS011;43147;50.972;18.210;2022-11-23T16:30:43;251.40;;;106.80;;
57297;SDS011;43147;50.972;18.210;2022-11-23T16:33:12;207.40;;;83.80;;